sensor_id;sensor_type;location;lat;lon;timestamp;temperature;humidity
54006;DHT22;39919;38.160;-122.260;2022-12-18T00:01:29;13.40;53.50
54006;DHT22;39919;38.160;-122.260;2022-12-18T00:04:02;13.30;53.80
54006;DHT22;39919;38.160;-122.260;2022-12-18T00:06:35;13.20;54.20
54006;DHT22;39919;38.160;-122.260;2022-12-18T00:09:05;13.20;54.90
54006;DHT22;39919;38.160;-122.260;2022-12-18T00:11:34;13.20;55.40
54006;DHT22;39919;38.160;-122.260;2022-12-18T00:14:02;13.10;55.60
54006;DHT22;39919;38.160;-122.260;2022-12-18T00:16:30;13.00;56.00
54006;DHT22;39919;38.160;-122.260;2022-12-18T00:24:27;12.90;57.20
54006;DHT22;39919;38.160;-122.260;2022-12-18T00:26:58;12.90;57.80
54006;DHT22;39919;38.160;-122.260;2022-12-18T00:29:27;12.80;58.10
54006;DHT22;39919;38.160;-122.260;2022-12-18T00:31:55;12.70;58.30
54006;DHT22;39919;38.160;-122.260;2022-12-18T00:34:23;12.60;58.30
54006;DHT22;39919;38.160;-122.260;2022-12-18T00:36:52;12.60;59.00
54006;DHT22;39919;38.160;-122.260;2022-12-18T00:39:20;12.50;59.40
54006;DHT22;39919;38.160;-122.260;2022-12-18T00:41:50;12.50;59.60
54006;DHT22;39919;38.160;-122.260;2022-12-18T00:44:35;12.40;59.90
54006;DHT22;39919;38.160;-122.260;2022-12-18T00:47:03;12.30;60.60
54006;DHT22;39919;38.160;-122.260;2022-12-18T00:49:31;12.30;60.90
54006;DHT22;39919;38.160;-122.260;2022-12-18T00:52:00;12.20;61.30
54006;DHT22;39919;38.160;-122.260;2022-12-18T00:54:28;12.10;61.30
54006;DHT22;39919;38.160;-122.260;2022-12-18T00:56:58;12.10;61.60
54006;DHT22;39919;38.160;-122.260;2022-12-18T00:59:29;12.00;61.60
54006;DHT22;39919;38.160;-122.260;2022-12-18T01:01:57;11.90;62.00
54006;DHT22;39919;38.160;-122.260;2022-12-18T01:04:26;11.80;62.40
54006;DHT22;39919;38.160;-122.260;2022-12-18T01:06:54;11.80;62.70
54006;DHT22;39919;38.160;-122.260;2022-12-18T01:09:22;11.70;62.70
54006;DHT22;39919;38.160;-122.260;2022-12-18T01:11:50;11.60;63.00
54006;DHT22;39919;38.160;-122.260;2022-12-18T01:14:20;11.60;63.10
54006;DHT22;39919;38.160;-122.260;2022-12-18T01:16:49;11.50;62.90
54006;DHT22;39919;38.160;-122.260;2022-12-18T01:19:17;11.40;63.00
54006;DHT22;39919;38.160;-122.260;2022-12-18T01:21:45;11.40;63.20
54006;DHT22;39919;38.160;-122.260;2022-12-18T01:24:13;11.30;63.20
54006;DHT22;39919;38.160;-122.260;2022-12-18T01:26:42;11.20;63.20
54006;DHT22;39919;38.160;-122.260;2022-12-18T01:29:10;11.10;63.50
54006;DHT22;39919;38.160;-122.260;2022-12-18T01:31:40;11.10;63.40
54006;DHT22;39919;38.160;-122.260;2022-12-18T01:34:08;11.10;63.70
54006;DHT22;39919;38.160;-122.260;2022-12-18T01:36:37;11.10;63.90
54006;DHT22;39919;38.160;-122.260;2022-12-18T01:39:10;11.00;63.70
54006;DHT22;39919;38.160;-122.260;2022-12-18T01:41:38;11.00;63.90
54006;DHT22;39919;38.160;-122.260;2022-12-18T01:44:55;10.90;63.90
54006;DHT22;39919;38.160;-122.260;2022-12-18T01:47:26;10.90;64.60
54006;DHT22;39919;38.160;-122.260;2022-12-18T01:49:56;10.90;64.60
54006;DHT22;39919;38.160;-122.260;2022-12-18T01:52:25;10.80;65.00
54006;DHT22;39919;38.160;-122.260;2022-12-18T01:54:54;10.80;65.00
54006;DHT22;39919;38.160;-122.260;2022-12-18T01:57:23;10.70;64.90
54006;DHT22;39919;38.160;-122.260;2022-12-18T01:59:52;10.60;65.30
54006;DHT22;39919;38.160;-122.260;2022-12-18T02:02:21;10.60;65.30
54006;DHT22;39919;38.160;-122.260;2022-12-18T02:04:51;10.60;65.90
54006;DHT22;39919;38.160;-122.260;2022-12-18T02:07:21;10.60;66.10
54006;DHT22;39919;38.160;-122.260;2022-12-18T02:09:54;10.50;66.20
54006;DHT22;39919;38.160;-122.260;2022-12-18T02:12:25;10.50;66.50
54006;DHT22;39919;38.160;-122.260;2022-12-18T02:14:57;10.40;66.40
54006;DHT22;39919;38.160;-122.260;2022-12-18T02:17:29;10.40;66.50
54006;DHT22;39919;38.160;-122.260;2022-12-18T02:20:02;10.40;66.80
54006;DHT22;39919;38.160;-122.260;2022-12-18T02:22:35;10.30;66.60
54006;DHT22;39919;38.160;-122.260;2022-12-18T02:25:11;10.20;66.80
54006;DHT22;39919;38.160;-122.260;2022-12-18T02:27:45;10.20;66.80
54006;DHT22;39919;38.160;-122.260;2022-12-18T02:30:14;10.10;66.50
54006;DHT22;39919;38.160;-122.260;2022-12-18T02:32:44;10.10;66.60
54006;DHT22;39919;38.160;-122.260;2022-12-18T02:35:15;10.00;66.40
54006;DHT22;39919;38.160;-122.260;2022-12-18T02:37:44;9.90;66.90
54006;DHT22;39919;38.160;-122.260;2022-12-18T02:40:16;9.80;67.00
54006;DHT22;39919;38.160;-122.260;2022-12-18T02:42:47;9.80;67.10
54006;DHT22;39919;38.160;-122.260;2022-12-18T02:45:15;9.70;67.30
54006;DHT22;39919;38.160;-122.260;2022-12-18T02:47:44;9.60;67.60
54006;DHT22;39919;38.160;-122.260;2022-12-18T02:50:18;9.50;68.50
54006;DHT22;39919;38.160;-122.260;2022-12-18T02:52:50;9.40;68.80
54006;DHT22;39919;38.160;-122.260;2022-12-18T02:55:23;9.40;69.90
54006;DHT22;39919;38.160;-122.260;2022-12-18T02:57:55;9.30;69.30
54006;DHT22;39919;38.160;-122.260;2022-12-18T03:00:25;9.10;69.00
54006;DHT22;39919;38.160;-122.260;2022-12-18T03:02:56;9.10;68.80
54006;DHT22;39919;38.160;-122.260;2022-12-18T03:05:30;9.00;69.40
54006;DHT22;39919;38.160;-122.260;2022-12-18T03:07:59;8.90;68.90
54006;DHT22;39919;38.160;-122.260;2022-12-18T03:10:29;8.80;68.80
54006;DHT22;39919;38.160;-122.260;2022-12-18T03:13:02;8.80;70.50
54006;DHT22;39919;38.160;-122.260;2022-12-18T03:15:31;8.70;71.80
54006;DHT22;39919;38.160;-122.260;2022-12-18T03:18:03;8.60;71.70
54006;DHT22;39919;38.160;-122.260;2022-12-18T03:20:32;8.50;71.30
54006;DHT22;39919;38.160;-122.260;2022-12-18T03:23:04;8.40;71.20
54006;DHT22;39919;38.160;-122.260;2022-12-18T03:25:35;8.30;71.00
54006;DHT22;39919;38.160;-122.260;2022-12-18T03:28:06;8.30;72.40
54006;DHT22;39919;38.160;-122.260;2022-12-18T03:30:36;8.20;72.60
54006;DHT22;39919;38.160;-122.260;2022-12-18T03:33:06;8.20;73.30
54006;DHT22;39919;38.160;-122.260;2022-12-18T03:35:37;8.10;73.10
54006;DHT22;39919;38.160;-122.260;2022-12-18T03:38:06;8.00;73.70
54006;DHT22;39919;38.160;-122.260;2022-12-18T03:43:24;7.90;74.30
54006;DHT22;39919;38.160;-122.260;2022-12-18T03:45:58;7.80;74.20
54006;DHT22;39919;38.160;-122.260;2022-12-18T03:48:31;7.80;75.00
54006;DHT22;39919;38.160;-122.260;2022-12-18T03:51:01;7.70;75.50
54006;DHT22;39919;38.160;-122.260;2022-12-18T03:53:34;7.60;75.40
54006;DHT22;39919;38.160;-122.260;2022-12-18T03:56:05;7.60;75.40
54006;DHT22;39919;38.160;-122.260;2022-12-18T03:58:36;7.50;75.90
54006;DHT22;39919;38.160;-122.260;2022-12-18T04:01:06;7.40;75.50
54006;DHT22;39919;38.160;-122.260;2022-12-18T04:03:35;7.40;75.70
54006;DHT22;39919;38.160;-122.260;2022-12-18T04:06:03;7.40;77.40
54006;DHT22;39919;38.160;-122.260;2022-12-18T04:08:33;7.30;78.50
54006;DHT22;39919;38.160;-122.260;2022-12-18T04:11:02;7.30;78.40
54006;DHT22;39919;38.160;-122.260;2022-12-18T04:13:33;7.20;78.50
54006;DHT22;39919;38.160;-122.260;2022-12-18T04:16:04;7.20;78.50
54006;DHT22;39919;38.160;-122.260;2022-12-18T04:18:32;7.20;79.40
54006;DHT22;39919;38.160;-122.260;2022-12-18T04:21:01;7.10;79.60
54006;DHT22;39919;38.160;-122.260;2022-12-18T04:23:32;7.10;78.80
54006;DHT22;39919;38.160;-122.260;2022-12-18T04:26:10;7.00;78.60
54006;DHT22;39919;38.160;-122.260;2022-12-18T04:28:55;7.00;78.80
54006;DHT22;39919;38.160;-122.260;2022-12-18T04:31:30;6.90;78.90
54006;DHT22;39919;38.160;-122.260;2022-12-18T04:34:00;6.90;79.40
54006;DHT22;39919;38.160;-122.260;2022-12-18T04:36:31;6.80;78.90
54006;DHT22;39919;38.160;-122.260;2022-12-18T04:39:21;6.80;79.40
54006;DHT22;39919;38.160;-122.260;2022-12-18T04:41:49;6.70;79.80
54006;DHT22;39919;38.160;-122.260;2022-12-18T04:44:17;6.70;80.50
54006;DHT22;39919;38.160;-122.260;2022-12-18T04:46:53;6.60;80.90
54006;DHT22;39919;38.160;-122.260;2022-12-18T04:49:36;6.60;80.50
54006;DHT22;39919;38.160;-122.260;2022-12-18T04:52:07;6.50;80.50
54006;DHT22;39919;38.160;-122.260;2022-12-18T04:54:55;6.50;82.20
54006;DHT22;39919;38.160;-122.260;2022-12-18T04:57:23;6.40;82.10
54006;DHT22;39919;38.160;-122.260;2022-12-18T04:59:52;6.40;83.20
54006;DHT22;39919;38.160;-122.260;2022-12-18T05:02:22;6.40;84.30
54006;DHT22;39919;38.160;-122.260;2022-12-18T05:05:02;6.40;84.40
54006;DHT22;39919;38.160;-122.260;2022-12-18T05:07:32;6.30;85.10
54006;DHT22;39919;38.160;-122.260;2022-12-18T05:10:08;6.30;85.90
54006;DHT22;39919;38.160;-122.260;2022-12-18T05:12:37;6.30;85.30
54006;DHT22;39919;38.160;-122.260;2022-12-18T05:15:24;6.20;84.50
54006;DHT22;39919;38.160;-122.260;2022-12-18T05:17:56;6.20;84.60
54006;DHT22;39919;38.160;-122.260;2022-12-18T05:20:25;6.10;85.00
54006;DHT22;39919;38.160;-122.260;2022-12-18T05:22:53;6.10;84.90
54006;DHT22;39919;38.160;-122.260;2022-12-18T05:25:24;6.10;84.20
54006;DHT22;39919;38.160;-122.260;2022-12-18T05:27:55;6.10;85.20
54006;DHT22;39919;38.160;-122.260;2022-12-18T05:30:23;6.00;85.10
54006;DHT22;39919;38.160;-122.260;2022-12-18T05:32:56;5.90;85.30
54006;DHT22;39919;38.160;-122.260;2022-12-18T05:35:24;5.90;84.70
54006;DHT22;39919;38.160;-122.260;2022-12-18T05:37:57;5.90;84.60
54006;DHT22;39919;38.160;-122.260;2022-12-18T05:40:25;5.80;85.90
54006;DHT22;39919;38.160;-122.260;2022-12-18T05:42:53;5.80;86.10
54006;DHT22;39919;38.160;-122.260;2022-12-18T05:45:22;5.70;85.70
54006;DHT22;39919;38.160;-122.260;2022-12-18T05:47:50;5.70;86.90
54006;DHT22;39919;38.160;-122.260;2022-12-18T05:50:22;5.60;86.90
54006;DHT22;39919;38.160;-122.260;2022-12-18T05:52:58;5.60;87.60
54006;DHT22;39919;38.160;-122.260;2022-12-18T05:55:27;5.60;87.90
54006;DHT22;39919;38.160;-122.260;2022-12-18T05:57:57;5.50;87.70
54006;DHT22;39919;38.160;-122.260;2022-12-18T06:00:26;5.50;88.10
54006;DHT22;39919;38.160;-122.260;2022-12-18T06:02:58;5.40;88.70
54006;DHT22;39919;38.160;-122.260;2022-12-18T06:05:33;5.40;90.80
54006;DHT22;39919;38.160;-122.260;2022-12-18T06:08:08;5.40;91.10
54006;DHT22;39919;38.160;-122.260;2022-12-18T06:10:39;5.40;90.90
54006;DHT22;39919;38.160;-122.260;2022-12-18T06:13:17;5.40;90.70
54006;DHT22;39919;38.160;-122.260;2022-12-18T06:15:51;5.30;90.70
54006;DHT22;39919;38.160;-122.260;2022-12-18T06:18:22;5.30;90.60
54006;DHT22;39919;38.160;-122.260;2022-12-18T06:20:56;5.30;90.50
54006;DHT22;39919;38.160;-122.260;2022-12-18T06:23:24;5.30;90.50
54006;DHT22;39919;38.160;-122.260;2022-12-18T06:25:56;5.30;90.60
54006;DHT22;39919;38.160;-122.260;2022-12-18T06:28:25;5.30;91.40
54006;DHT22;39919;38.160;-122.260;2022-12-18T06:30:59;5.30;92.30
54006;DHT22;39919;38.160;-122.260;2022-12-18T06:33:38;5.30;92.70
54006;DHT22;39919;38.160;-122.260;2022-12-18T06:36:14;5.20;92.70
54006;DHT22;39919;38.160;-122.260;2022-12-18T06:38:48;5.20;92.70
54006;DHT22;39919;38.160;-122.260;2022-12-18T06:41:17;5.20;93.20
54006;DHT22;39919;38.160;-122.260;2022-12-18T06:43:49;5.20;93.60
54006;DHT22;39919;38.160;-122.260;2022-12-18T06:46:28;5.10;93.30
54006;DHT22;39919;38.160;-122.260;2022-12-18T06:49:01;5.10;92.90
54006;DHT22;39919;38.160;-122.260;2022-12-18T06:51:37;5.10;92.70
54006;DHT22;39919;38.160;-122.260;2022-12-18T06:54:06;5.10;93.00
54006;DHT22;39919;38.160;-122.260;2022-12-18T06:56:39;5.00;92.80
54006;DHT22;39919;38.160;-122.260;2022-12-18T06:59:10;5.00;92.60
54006;DHT22;39919;38.160;-122.260;2022-12-18T07:01:48;4.90;92.20
54006;DHT22;39919;38.160;-122.260;2022-12-18T07:04:17;4.90;91.70
54006;DHT22;39919;38.160;-122.260;2022-12-18T07:07:00;4.80;91.30
54006;DHT22;39919;38.160;-122.260;2022-12-18T07:09:46;4.80;91.60
54006;DHT22;39919;38.160;-122.260;2022-12-18T07:12:20;4.80;92.10
54006;DHT22;39919;38.160;-122.260;2022-12-18T07:14:51;4.70;91.90
54006;DHT22;39919;38.160;-122.260;2022-12-18T07:20:06;4.60;92.60
54006;DHT22;39919;38.160;-122.260;2022-12-18T07:22:37;4.60;92.80
54006;DHT22;39919;38.160;-122.260;2022-12-18T07:25:16;4.60;93.90
54006;DHT22;39919;38.160;-122.260;2022-12-18T07:27:47;4.50;94.30
54006;DHT22;39919;38.160;-122.260;2022-12-18T07:30:15;4.50;94.40
54006;DHT22;39919;38.160;-122.260;2022-12-18T07:32:45;4.40;94.90
54006;DHT22;39919;38.160;-122.260;2022-12-18T07:35:14;4.40;94.60
54006;DHT22;39919;38.160;-122.260;2022-12-18T07:37:47;4.40;95.30
54006;DHT22;39919;38.160;-122.260;2022-12-18T07:40:16;4.30;95.60
54006;DHT22;39919;38.160;-122.260;2022-12-18T07:42:45;4.30;95.20
54006;DHT22;39919;38.160;-122.260;2022-12-18T07:45:13;4.30;95.40
54006;DHT22;39919;38.160;-122.260;2022-12-18T07:47:44;4.30;95.60
54006;DHT22;39919;38.160;-122.260;2022-12-18T07:50:16;4.20;95.30
54006;DHT22;39919;38.160;-122.260;2022-12-18T07:52:46;4.20;95.10
54006;DHT22;39919;38.160;-122.260;2022-12-18T07:55:15;4.20;95.20
54006;DHT22;39919;38.160;-122.260;2022-12-18T07:57:46;4.20;95.40
54006;DHT22;39919;38.160;-122.260;2022-12-18T08:00:19;4.10;96.00
54006;DHT22;39919;38.160;-122.260;2022-12-18T08:02:47;4.10;96.60
54006;DHT22;39919;38.160;-122.260;2022-12-18T08:05:16;4.10;96.50
54006;DHT22;39919;38.160;-122.260;2022-12-18T08:07:49;4.10;97.00
54006;DHT22;39919;38.160;-122.260;2022-12-18T08:10:17;4.10;97.10
54006;DHT22;39919;38.160;-122.260;2022-12-18T08:12:49;4.00;97.10
54006;DHT22;39919;38.160;-122.260;2022-12-18T08:15:18;4.00;96.70
54006;DHT22;39919;38.160;-122.260;2022-12-18T08:17:49;4.00;96.40
54006;DHT22;39919;38.160;-122.260;2022-12-18T08:20:18;4.00;96.20
54006;DHT22;39919;38.160;-122.260;2022-12-18T08:22:51;3.90;95.90
54006;DHT22;39919;38.160;-122.260;2022-12-18T08:25:20;3.90;95.60
54006;DHT22;39919;38.160;-122.260;2022-12-18T08:27:55;3.90;95.80
54006;DHT22;39919;38.160;-122.260;2022-12-18T08:30:24;3.90;96.10
54006;DHT22;39919;38.160;-122.260;2022-12-18T08:32:52;3.90;96.10
54006;DHT22;39919;38.160;-122.260;2022-12-18T08:35:27;3.80;96.30
54006;DHT22;39919;38.160;-122.260;2022-12-18T08:37:57;3.80;96.20
54006;DHT22;39919;38.160;-122.260;2022-12-18T08:40:37;3.70;95.90
54006;DHT22;39919;38.160;-122.260;2022-12-18T08:43:05;3.70;95.90
54006;DHT22;39919;38.160;-122.260;2022-12-18T08:45:52;3.70;95.80
54006;DHT22;39919;38.160;-122.260;2022-12-18T08:48:21;3.70;95.80
54006;DHT22;39919;38.160;-122.260;2022-12-18T08:50:53;3.60;95.80
54006;DHT22;39919;38.160;-122.260;2022-12-18T08:53:29;3.60;95.60
54006;DHT22;39919;38.160;-122.260;2022-12-18T08:56:00;3.60;95.40
54006;DHT22;39919;38.160;-122.260;2022-12-18T08:58:34;3.50;95.20
54006;DHT22;39919;38.160;-122.260;2022-12-18T09:01:03;3.50;95.30
54006;DHT22;39919;38.160;-122.260;2022-12-18T09:03:36;3.50;95.70
54006;DHT22;39919;38.160;-122.260;2022-12-18T09:06:05;3.40;95.30
54006;DHT22;39919;38.160;-122.260;2022-12-18T09:08:35;3.40;95.00
54006;DHT22;39919;38.160;-122.260;2022-12-18T09:11:09;3.40;94.90
54006;DHT22;39919;38.160;-122.260;2022-12-18T09:13:39;3.30;95.20
54006;DHT22;39919;38.160;-122.260;2022-12-18T09:16:11;3.30;95.40
54006;DHT22;39919;38.160;-122.260;2022-12-18T09:18:40;3.30;95.30
54006;DHT22;39919;38.160;-122.260;2022-12-18T09:21:14;3.30;95.20
54006;DHT22;39919;38.160;-122.260;2022-12-18T09:23:50;3.20;95.30
54006;DHT22;39919;38.160;-122.260;2022-12-18T09:26:24;3.20;95.40
54006;DHT22;39919;38.160;-122.260;2022-12-18T09:28:53;3.10;95.50
54006;DHT22;39919;38.160;-122.260;2022-12-18T09:31:23;3.10;95.80
54006;DHT22;39919;38.160;-122.260;2022-12-18T09:33:51;3.10;95.80
54006;DHT22;39919;38.160;-122.260;2022-12-18T09:36:20;3.00;95.90
54006;DHT22;39919;38.160;-122.260;2022-12-18T09:38:51;3.00;96.30
54006;DHT22;39919;38.160;-122.260;2022-12-18T09:41:37;3.00;96.20
54006;DHT22;39919;38.160;-122.260;2022-12-18T09:44:15;3.00;96.50
54006;DHT22;39919;38.160;-122.260;2022-12-18T09:46:47;3.00;96.70
54006;DHT22;39919;38.160;-122.260;2022-12-18T09:49:23;3.00;96.50
54006;DHT22;39919;38.160;-122.260;2022-12-18T09:51:55;2.90;96.50
54006;DHT22;39919;38.160;-122.260;2022-12-18T09:54:32;2.90;97.10
54006;DHT22;39919;38.160;-122.260;2022-12-18T09:57:09;2.90;97.50
54006;DHT22;39919;38.160;-122.260;2022-12-18T09:59:38;2.90;97.50
54006;DHT22;39919;38.160;-122.260;2022-12-18T10:02:19;2.90;97.80
54006;DHT22;39919;38.160;-122.260;2022-12-18T10:04:51;2.90;98.10
54006;DHT22;39919;38.160;-122.260;2022-12-18T10:07:24;2.90;97.70
54006;DHT22;39919;38.160;-122.260;2022-12-18T10:10:01;2.90;97.40
54006;DHT22;39919;38.160;-122.260;2022-12-18T10:12:34;2.80;97.30
54006;DHT22;39919;38.160;-122.260;2022-12-18T10:15:10;2.90;97.10
54006;DHT22;39919;38.160;-122.260;2022-12-18T10:17:49;2.90;96.80
54006;DHT22;39919;38.160;-122.260;2022-12-18T10:20:21;2.80;96.60
54006;DHT22;39919;38.160;-122.260;2022-12-18T10:22:55;2.80;96.20
54006;DHT22;39919;38.160;-122.260;2022-12-18T10:25:31;2.80;96.30
54006;DHT22;39919;38.160;-122.260;2022-12-18T10:28:08;2.70;96.30
54006;DHT22;39919;38.160;-122.260;2022-12-18T10:30:42;2.70;96.10
54006;DHT22;39919;38.160;-122.260;2022-12-18T10:33:15;2.70;95.80
54006;DHT22;39919;38.160;-122.260;2022-12-18T10:35:44;2.70;95.60
54006;DHT22;39919;38.160;-122.260;2022-12-18T10:38:23;2.60;95.50
54006;DHT22;39919;38.160;-122.260;2022-12-18T10:40:55;2.60;95.90
54006;DHT22;39919;38.160;-122.260;2022-12-18T16:18:32;1.70;99.90
54006;DHT22;39919;38.160;-122.260;2022-12-18T16:21:00;1.70;99.90
54006;DHT22;39919;38.160;-122.260;2022-12-18T16:23:29;1.70;99.90
54006;DHT22;39919;38.160;-122.260;2022-12-18T16:25:57;1.70;99.90
54006;DHT22;39919;38.160;-122.260;2022-12-18T16:28:25;1.70;99.90
54006;DHT22;39919;38.160;-122.260;2022-12-18T16:30:54;1.80;99.90
54006;DHT22;39919;38.160;-122.260;2022-12-18T16:33:22;1.90;99.90
54006;DHT22;39919;38.160;-122.260;2022-12-18T16:35:55;2.00;99.90
54006;DHT22;39919;38.160;-122.260;2022-12-18T16:38:23;2.00;99.90
54006;DHT22;39919;38.160;-122.260;2022-12-18T16:40:51;2.10;99.90
54006;DHT22;39919;38.160;-122.260;2022-12-18T16:43:36;2.20;99.90
54006;DHT22;39919;38.160;-122.260;2022-12-18T16:46:04;2.30;99.90
54006;DHT22;39919;38.160;-122.260;2022-12-18T16:48:33;2.50;99.90
54006;DHT22;39919;38.160;-122.260;2022-12-18T16:51:03;2.60;99.90
54006;DHT22;39919;38.160;-122.260;2022-12-18T16:53:32;2.70;99.90
54006;DHT22;39919;38.160;-122.260;2022-12-18T16:56:00;2.90;99.90
54006;DHT22;39919;38.160;-122.260;2022-12-18T16:58:29;3.00;99.90
54006;DHT22;39919;38.160;-122.260;2022-12-18T17:00:57;3.30;99.90
54006;DHT22;39919;38.160;-122.260;2022-12-18T17:03:25;3.40;99.90
54006;DHT22;39919;38.160;-122.260;2022-12-18T17:05:54;3.60;99.90
54006;DHT22;39919;38.160;-122.260;2022-12-18T17:08:23;3.80;99.90
54006;DHT22;39919;38.160;-122.260;2022-12-18T17:10:52;3.90;99.90
54006;DHT22;39919;38.160;-122.260;2022-12-18T17:13:21;4.10;99.90
54006;DHT22;39919;38.160;-122.260;2022-12-18T17:15:49;4.30;99.90
54006;DHT22;39919;38.160;-122.260;2022-12-18T17:18:17;4.40;99.90
54006;DHT22;39919;38.160;-122.260;2022-12-18T17:20:46;4.60;99.90
54006;DHT22;39919;38.160;-122.260;2022-12-18T17:23:14;4.80;99.90
54006;DHT22;39919;38.160;-122.260;2022-12-18T17:25:44;5.00;99.00
54006;DHT22;39919;38.160;-122.260;2022-12-18T17:28:12;5.10;98.80
54006;DHT22;39919;38.160;-122.260;2022-12-18T17:30:41;5.30;98.80
54006;DHT22;39919;38.160;-122.260;2022-12-18T17:33:09;5.40;98.50
54006;DHT22;39919;38.160;-122.260;2022-12-18T17:35:37;5.60;97.30
54006;DHT22;39919;38.160;-122.260;2022-12-18T17:38:05;5.80;97.00
54006;DHT22;39919;38.160;-122.260;2022-12-18T17:40:34;6.10;96.60
54006;DHT22;39919;38.160;-122.260;2022-12-18T17:43:04;6.60;97.60
54006;DHT22;39919;38.160;-122.260;2022-12-18T17:45:34;7.40;94.20
54006;DHT22;39919;38.160;-122.260;2022-12-18T17:48:02;8.40;94.10
54006;DHT22;39919;38.160;-122.260;2022-12-18T17:50:31;9.60;84.10
54006;DHT22;39919;38.160;-122.260;2022-12-18T17:52:59;10.80;79.60
54006;DHT22;39919;38.160;-122.260;2022-12-18T17:55:28;12.00;78.60
54006;DHT22;39919;38.160;-122.260;2022-12-18T17:57:57;13.20;71.70
54006;DHT22;39919;38.160;-122.260;2022-12-18T18:00:27;14.40;67.60
54006;DHT22;39919;38.160;-122.260;2022-12-18T18:02:55;15.50;65.10
54006;DHT22;39919;38.160;-122.260;2022-12-18T18:05:23;16.40;60.10
54006;DHT22;39919;38.160;-122.260;2022-12-18T18:07:52;17.50;64.30
54006;DHT22;39919;38.160;-122.260;2022-12-18T18:10:20;18.50;60.20
54006;DHT22;39919;38.160;-122.260;2022-12-18T18:12:48;19.50;59.90
54006;DHT22;39919;38.160;-122.260;2022-12-18T18:15:35;20.50;62.90
54006;DHT22;39919;38.160;-122.260;2022-12-18T18:18:06;21.60;54.90
54006;DHT22;39919;38.160;-122.260;2022-12-18T18:20:38;22.50;47.50
54006;DHT22;39919;38.160;-122.260;2022-12-18T18:23:06;23.30;62.80
54006;DHT22;39919;38.160;-122.260;2022-12-18T18:28:04;24.40;68.00
54006;DHT22;39919;38.160;-122.260;2022-12-18T18:37:59;24.90;36.30
54006;DHT22;39919;38.160;-122.260;2022-12-18T18:40:34;25.00;37.50
54006;DHT22;39919;38.160;-122.260;2022-12-18T18:43:06;25.10;36.90
54006;DHT22;39919;38.160;-122.260;2022-12-18T18:45:55;25.10;35.90
54006;DHT22;39919;38.160;-122.260;2022-12-18T18:48:24;24.90;33.50
54006;DHT22;39919;38.160;-122.260;2022-12-18T18:51:04;24.70;34.60
54006;DHT22;39919;38.160;-122.260;2022-12-18T18:53:37;24.40;34.80
54006;DHT22;39919;38.160;-122.260;2022-12-18T18:56:05;24.00;35.20
54006;DHT22;39919;38.160;-122.260;2022-12-18T18:58:37;23.70;35.40
54006;DHT22;39919;38.160;-122.260;2022-12-18T19:01:06;23.50;35.80
54006;DHT22;39919;38.160;-122.260;2022-12-18T19:03:37;23.40;37.00
54006;DHT22;39919;38.160;-122.260;2022-12-18T19:06:16;23.40;37.30
54006;DHT22;39919;38.160;-122.260;2022-12-18T19:08:50;23.60;37.20
54006;DHT22;39919;38.160;-122.260;2022-12-18T19:11:19;23.70;37.90
54006;DHT22;39919;38.160;-122.260;2022-12-18T19:14:08;24.10;37.70
54006;DHT22;39919;38.160;-122.260;2022-12-18T19:16:40;24.20;35.50
54006;DHT22;39919;38.160;-122.260;2022-12-18T19:19:15;24.50;36.60
54006;DHT22;39919;38.160;-122.260;2022-12-18T19:21:45;24.60;38.30
54006;DHT22;39919;38.160;-122.260;2022-12-18T19:56:34;16.30;43.70
54006;DHT22;39919;38.160;-122.260;2022-12-18T19:59:35;15.70;45.10
54006;DHT22;39919;38.160;-122.260;2022-12-18T20:08:30;14.30;47.20
54006;DHT22;39919;38.160;-122.260;2022-12-18T20:11:24;14.10;48.10
54006;DHT22;39919;38.160;-122.260;2022-12-18T20:20:23;13.30;50.10
54006;DHT22;39919;38.160;-122.260;2022-12-18T20:23:07;13.10;50.30
54006;DHT22;39919;38.160;-122.260;2022-12-18T20:38:22;12.60;52.50
54006;DHT22;39919;38.160;-122.260;2022-12-18T20:41:10;12.50;52.40
54006;DHT22;39919;38.160;-122.260;2022-12-18T20:45:00;12.40;53.90
54006;DHT22;39919;38.160;-122.260;2022-12-18T20:50:29;12.30;62.00
54006;DHT22;39919;38.160;-122.260;2022-12-18T20:56:21;12.40;57.00
54006;DHT22;39919;38.160;-122.260;2022-12-18T20:58:50;12.40;61.80
54006;DHT22;39919;38.160;-122.260;2022-12-18T21:01:18;12.40;61.90
54006;DHT22;39919;38.160;-122.260;2022-12-18T21:03:47;12.40;62.90
54006;DHT22;39919;38.160;-122.260;2022-12-18T21:06:16;12.40;62.60
54006;DHT22;39919;38.160;-122.260;2022-12-18T21:08:44;12.40;63.00
54006;DHT22;39919;38.160;-122.260;2022-12-18T21:11:14;12.40;62.40
54006;DHT22;39919;38.160;-122.260;2022-12-18T21:13:57;12.50;62.40
54006;DHT22;39919;38.160;-122.260;2022-12-18T21:16:26;12.50;62.60
54006;DHT22;39919;38.160;-122.260;2022-12-18T21:18:54;12.50;62.10
54006;DHT22;39919;38.160;-122.260;2022-12-18T21:21:22;12.60;61.60
54006;DHT22;39919;38.160;-122.260;2022-12-18T21:23:50;12.60;61.30
54006;DHT22;39919;38.160;-122.260;2022-12-18T21:26:19;12.60;57.60
54006;DHT22;39919;38.160;-122.260;2022-12-18T21:28:48;12.60;57.20
54006;DHT22;39919;38.160;-122.260;2022-12-18T21:31:21;12.50;57.00
54006;DHT22;39919;38.160;-122.260;2022-12-18T21:33:49;12.50;57.00
54006;DHT22;39919;38.160;-122.260;2022-12-18T21:36:18;12.50;57.10
54006;DHT22;39919;38.160;-122.260;2022-12-18T21:38:46;12.50;56.90
54006;DHT22;39919;38.160;-122.260;2022-12-18T21:41:15;12.50;56.60
54006;DHT22;39919;38.160;-122.260;2022-12-18T21:43:56;12.50;57.00
54006;DHT22;39919;38.160;-122.260;2022-12-18T21:46:36;12.50;56.90
54006;DHT22;39919;38.160;-122.260;2022-12-18T21:49:04;12.40;57.40
54006;DHT22;39919;38.160;-122.260;2022-12-18T21:51:33;12.30;57.30
54006;DHT22;39919;38.160;-122.260;2022-12-18T21:54:02;12.30;57.90
54006;DHT22;39919;38.160;-122.260;2022-12-18T21:56:41;12.20;58.40
54006;DHT22;39919;38.160;-122.260;2022-12-18T21:59:11;12.10;58.50
54006;DHT22;39919;38.160;-122.260;2022-12-18T22:01:41;12.10;59.10
54006;DHT22;39919;38.160;-122.260;2022-12-18T22:04:09;12.00;59.10
54006;DHT22;39919;38.160;-122.260;2022-12-18T22:06:38;12.00;59.80
54006;DHT22;39919;38.160;-122.260;2022-12-18T22:09:07;11.90;60.20
54006;DHT22;39919;38.160;-122.260;2022-12-18T22:11:36;11.80;60.50
54006;DHT22;39919;38.160;-122.260;2022-12-18T22:14:04;11.80;60.70
54006;DHT22;39919;38.160;-122.260;2022-12-18T22:16:32;11.80;60.80
54006;DHT22;39919;38.160;-122.260;2022-12-18T22:19:02;11.80;61.20
54006;DHT22;39919;38.160;-122.260;2022-12-18T22:21:31;11.70;60.90
54006;DHT22;39919;38.160;-122.260;2022-12-18T22:24:00;11.70;60.80
54006;DHT22;39919;38.160;-122.260;2022-12-18T22:26:29;11.70;60.70